Time;durP1;ratioP1;P1;durP2;ratioP2;P2;SDS_P1;SDS_P2;PMS_P1;PMS_P2;Temp;Humidity;BMP_temperature;BMP_pressure;BME280_temperature;BME280_humidity;BME280_pressure;Samples;Min_cycle;Max_cycle;Signal;HPM_P1;HPM_P2
2021/12/03 00:00:12;;;;;;;23.73;3.55;;;;;;;0.20;100.00;100549.34;5030583;28;20044;-74
2021/12/03 00:02:38;;;;;;;22.20;3.45;;;;;;;0.22;100.00;100557.88;5025106;28;20041;-74
2021/12/03 00:05:04;;;;;;;30.48;3.20;;;;;;;0.23;100.00;100556.88;5025710;28;20029;-74
2021/12/03 00:07:33;;;;;;;25.60;4.28;;;;;;;0.34;100.00;100575.91;5026079;28;20082;-74
2021/12/03 00:10:01;;;;;;;24.42;3.80;;;;;;;0.41;100.00;100572.34;5025986;28;20093;-74
2021/12/03 00:12:26;;;;;;;29.92;3.75;;;;;;;0.43;100.00;100567.69;5025161;28;20060;-74
2021/12/03 00:14:52;;;;;;;41.53;4.70;;;;;;;0.44;100.00;100565.84;5027107;28;20737;-74
2021/12/03 00:17:17;;;;;;;26.10;3.88;;;;;;;0.60;100.00;100567.47;5023605;28;20036;-73
2021/12/03 00:19:45;;;;;;;32.55;4.07;;;;;;;0.60;100.00;100565.63;5023668;28;20028;-75
2021/12/03 00:22:13;;;;;;;34.55;3.85;;;;;;;0.59;100.00;100568.47;5031190;28;20025;-74
2021/12/03 00:24:39;;;;;;;29.83;4.45;;;;;;;0.55;100.00;100575.94;5024290;28;20039;-74
2021/12/03 00:27:08;;;;;;;19.42;3.05;;;;;;;0.64;100.00;100576.63;5005575;28;20021;-74
2021/12/03 00:29:33;;;;;;;19.20;2.88;;;;;;;0.61;100.00;100575.19;5029933;28;20798;-73
2021/12/03 00:31:58;;;;;;;21.00;3.28;;;;;;;0.74;100.00;100577.97;5024673;28;20033;-73
2021/12/03 00:34:26;;;;;;;17.45;3.58;;;;;;;0.91;100.00;100589.13;5025152;28;20094;-72
2021/12/03 00:36:52;;;;;;;16.98;2.92;;;;;;;0.92;100.00;100584.66;5025056;28;20029;-73
2021/12/03 00:39:18;;;;;;;20.92;2.80;;;;;;;0.86;100.00;100574.84;5024165;28;20040;-73
2021/12/03 00:41:54;;;;;;;17.42;2.60;;;;;;;0.72;100.00;100545.66;5022938;28;20111;-73
2021/12/03 00:44:24;;;;;;;33.45;2.50;;;;;;;0.87;100.00;100587.03;5023487;28;20187;-73
2021/12/03 00:46:52;;;;;;;17.42;2.53;;;;;;;0.88;100.00;100576.28;5024068;28;20033;-73
2021/12/03 00:49:17;;;;;;;11.75;2.03;;;;;;;0.78;100.00;100568.66;5023418;28;20041;-74
2021/12/03 00:51:42;;;;;;;14.85;2.20;;;;;;;0.78;100.00;100578.41;5023992;28;20036;-73
2021/12/03 00:54:12;;;;;;;25.33;3.20;;;;;;;0.83;100.00;100570.75;5028328;28;20064;-73
2021/12/03 00:56:38;;;;;;;27.52;3.75;;;;;;;0.97;100.00;100561.94;5025106;28;21858;-73
2021/12/03 00:59:09;;;;;;;29.98;3.42;;;;;;;1.14;100.00;100567.81;5023970;28;20432;-73
2021/12/03 01:01:38;;;;;;;27.27;4.03;;;;;;;1.21;100.00;100562.56;5027353;28;20068;-73
2021/12/03 01:04:04;;;;;;;30.58;3.63;;;;;;;1.17;100.00;100551.56;5022179;28;20488;-73
2021/12/03 01:06:34;;;;;;;30.75;3.80;;;;;;;1.47;100.00;100543.47;5039055;28;20126;-73
2021/12/03 01:09:00;;;;;;;27.13;3.50;;;;;;;1.58;100.00;100537.63;5023827;28;21963;-73
2021/12/03 01:11:25;;;;;;;23.10;3.60;;;;;;;1.80;100.00;100541.84;5005523;28;20033;-74
2021/12/03 01:13:53;;;;;;;27.98;2.78;;;;;;;1.79;100.00;100520.84;5023706;28;20039;-73
2021/12/03 01:16:19;;;;;;;23.25;2.85;;;;;;;1.96;100.00;100541.53;5024007;28;20044;-73
2021/12/03 01:18:45;;;;;;;21.98;2.85;;;;;;;2.01;100.00;100554.16;5023189;28;20110;-74
2021/12/03 01:21:14;;;;;;;29.80;2.97;;;;;;;1.99;100.00;100544.78;5012525;28;20644;-73
2021/12/03 01:23:46;;;;;;;18.65;2.65;;;;;;;1.91;100.00;100553.69;5027632;28;20281;-73
2021/12/03 01:26:11;;;;;;;18.77;2.17;;;;;;;1.92;100.00;100550.84;5021072;28;20040;-73
2021/12/03 01:28:39;;;;;;;22.73;2.65;;;;;;;2.00;100.00;100546.41;5027186;28;20039;-72
2021/12/03 01:31:08;;;;;;;18.55;3.67;;;;;;;2.11;100.00;100553.78;5011914;28;20269;-72
2021/12/03 01:33:34;;;;;;;22.23;2.22;;;;;;;2.19;100.00;100553.63;5023690;28;20033;-72
2021/12/03 01:36:02;;;;;;;12.20;2.15;;;;;;;2.35;100.00;100550.63;5036844;28;20508;-72
2021/12/03 01:38:32;;;;;;;20.35;3.13;;;;;;;2.39;100.00;100551.88;5024101;28;20800;-73
2021/12/03 01:41:01;;;;;;;22.17;2.63;;;;;;;2.59;100.00;100561.72;5013035;28;20464;-73
2021/12/03 01:43:31;;;;;;;13.90;1.60;;;;;;;2.76;100.00;100555.03;5024577;28;20120;-72
2021/12/03 01:46:05;;;;;;;16.48;2.00;;;;;;;2.86;100.00;100552.81;5038828;28;20040;-72
2021/12/03 01:48:33;;;;;;;21.38;2.53;;;;;;;3.03;100.00;100556.72;5022111;28;20028;-72
2021/12/03 01:51:00;;;;;;;9.15;1.50;;;;;;;3.11;100.00;100552.25;5022191;28;20547;-73
2021/12/03 01:53:27;;;;;;;21.13;3.33;;;;;;;3.06;100.00;100540.41;5024243;28;20043;-73
2021/12/03 01:56:02;;;;;;;12.93;1.60;;;;;;;3.09;100.00;100532.06;5024351;28;20555;-73
2021/12/03 01:58:30;;;;;;;12.30;2.15;;;;;;;3.10;100.00;100530.22;5024272;28;20036;-72
2021/12/03 02:01:01;;;;;;;16.45;2.42;;;;;;;3.12;100.00;100535.31;5022193;28;20323;-72
2021/12/03 02:03:34;;;;;;;23.45;3.03;;;;;;;3.00;100.00;100537.72;5011590;28;20029;-72
2021/12/03 02:06:03;;;;;;;21.42;2.72;;;;;;;2.96;100.00;100549.78;5024340;28;20649;-71
2021/12/03 02:08:29;;;;;;;14.63;2.13;;;;;;;2.95;100.00;100561.41;5021898;28;20370;-73
2021/12/03 02:10:55;;;;;;;18.23;2.95;;;;;;;2.99;100.00;100558.13;5026738;28;21936;-72
2021/12/03 02:13:24;;;;;;;11.18;2.05;;;;;;;2.99;100.00;100547.53;5027687;28;20472;-72
2021/12/03 02:15:49;;;;;;;15.20;1.60;;;;;;;3.01;100.00;100540.22;5036097;28;20032;-73
2021/12/03 02:18:16;;;;;;;14.85;1.80;;;;;;;3.04;100.00;100538.97;5021565;28;20029;-72
2021/12/03 02:20:46;;;;;;;15.90;1.58;;;;;;;3.07;100.00;100534.06;5038952;28;20775;-73
2021/12/03 02:23:15;;;;;;;11.30;2.00;;;;;;;3.11;100.00;100518.59;5038107;28;20037;-73
2021/12/03 02:25:42;;;;;;;14.82;2.25;;;;;;;3.25;100.00;100516.75;5026614;28;20431;-72
2021/12/03 02:28:08;;;;;;;19.80;2.63;;;;;;;3.32;100.00;100528.16;5021903;28;20688;-72
2021/12/03 02:30:36;;;;;;;16.25;2.05;;;;;;;3.22;100.00;100527.75;5011704;28;20124;-73
2021/12/03 02:33:04;;;;;;;12.20;1.45;;;;;;;3.37;100.00;100529.19;5023226;28;20658;-73
2021/12/03 02:35:30;;;;;;;14.60;2.60;;;;;;;3.39;100.00;100515.72;5022067;28;20472;-73
2021/12/03 02:37:55;;;;;;;14.05;2.17;;;;;;;3.47;100.00;100527.94;5024084;28;20135;-73
2021/12/03 02:40:22;;;;;;;15.80;2.17;;;;;;;3.43;100.00;100527.56;5000958;28;21617;-73
2021/12/03 02:42:53;;;;;;;12.98;1.40;;;;;;;3.53;100.00;100524.47;5024355;28;20120;-73
2021/12/03 02:45:24;;;;;;;9.15;2.03;;;;;;;3.45;100.00;100519.38;5027793;28;20477;-73
2021/12/03 02:47:52;;;;;;;20.58;2.28;;;;;;;3.54;100.00;100521.63;5040871;28;20029;-73
2021/12/03 02:50:17;;;;;;;38.70;2.63;;;;;;;3.44;100.00;100499.19;5015050;28;20188;-73
2021/12/03 02:52:45;;;;;;;17.80;1.67;;;;;;;3.45;100.00;100512.25;5015010;28;20028;-74
2021/12/03 02:55:11;;;;;;;13.18;1.85;;;;;;;3.43;100.00;100519.59;5026678;28;20067;-73
2021/12/03 02:57:36;;;;;;;21.70;2.55;;;;;;;3.49;100.00;100516.09;5024820;28;20029;-74
2021/12/03 03:00:06;;;;;;;16.73;2.03;;;;;;;3.44;100.00;100504.50;5025972;28;20067;-74
2021/12/03 03:02:31;;;;;;;9.88;1.58;;;;;;;3.60;100.00;100518.13;5025048;28;20512;-73
2021/12/03 03:05:01;;;;;;;16.77;2.22;;;;;;;3.88;100.00;100509.06;5029574;28;20089;-73
2021/12/03 03:07:29;;;;;;;17.40;2.63;;;;;;;4.05;100.00;100494.31;5027216;28;20082;-73
2021/12/03 03:09:55;;;;;;;19.15;2.53;;;;;;;4.27;100.00;100502.81;5041492;28;20036;-73
2021/12/03 03:12:21;;;;;;;21.75;3.22;;;;;;;4.26;100.00;100487.91;5025219;28;20712;-73
2021/12/03 03:14:50;;;;;;;16.58;1.88;;;;;;;4.25;100.00;100488.13;5025965;28;20117;-73
2021/12/03 03:17:16;;;;;;;12.57;2.08;;;;;;;4.10;100.00;100481.22;5026489;28;22020;-73
2021/12/03 03:19:41;;;;;;;12.38;2.03;;;;;;;4.04;100.00;100466.13;5039729;28;20318;-74
2021/12/03 03:22:09;;;;;;;7.07;1.42;;;;;;;4.00;100.00;100475.56;5025559;28;20505;-74
2021/12/03 03:24:37;;;;;;;7.00;1.13;;;;;;;3.93;100.00;100456.19;5025607;28;20033;-74
2021/12/03 03:27:05;;;;;;;11.95;1.60;;;;;;;3.83;100.00;100459.31;5026661;28;20030;-74
2021/12/03 03:29:36;;;;;;;17.65;1.90;;;;;;;3.84;100.00;100465.41;5041285;28;20119;-74
2021/12/03 03:32:03;;;;;;;9.18;1.67;;;;;;;3.76;100.00;100469.13;5024887;28;20056;-74
2021/12/03 03:34:30;;;;;;;13.30;1.88;;;;;;;3.78;100.00;100463.59;5031379;28;20140;-74
2021/12/03 03:36:59;;;;;;;11.50;2.13;;;;;;;3.81;100.00;100457.88;5026177;28;20087;-74
2021/12/03 03:39:26;;;;;;;12.85;1.38;;;;;;;3.75;100.00;100448.94;5014700;28;20136;-75
2021/12/03 03:41:52;;;;;;;12.20;1.85;;;;;;;3.82;100.00;100456.84;5025180;28;20037;-74
2021/12/03 03:44:17;;;;;;;10.68;1.50;;;;;;;3.89;100.00;100454.97;5041797;28;20040;-75
2021/12/03 03:46:45;;;;;;;13.30;1.42;;;;;;;3.90;100.00;100451.28;5025978;28;20037;-75
2021/12/03 03:49:13;;;;;;;10.98;1.88;;;;;;;3.90;100.00;100443.31;5040567;28;20153;-75
2021/12/03 03:51:38;;;;;;;13.93;2.00;;;;;;;3.95;100.00;100440.88;5040434;28;20252;-75
2021/12/03 03:54:06;;;;;;;11.23;1.60;;;;;;;4.07;100.00;100436.53;5024265;28;20527;-75
2021/12/03 03:56:31;;;;;;;14.20;1.70;;;;;;;4.11;100.00;100435.06;5024810;28;20032;-75
2021/12/03 03:58:57;;;;;;;15.40;1.88;;;;;;;4.11;100.00;100428.94;5014393;28;20037;-75
2021/12/03 04:01:23;;;;;;;10.95;1.75;;;;;;;4.15;100.00;100443.41;5025026;28;20033;-75
2021/12/03 04:03:48;;;;;;;14.93;2.28;;;;;;;4.31;100.00;100444.75;5023116;28;20072;-75
2021/12/03 04:06:17;;;;;;;20.05;2.95;;;;;;;4.38;100.00;100446.34;5026743;28;20190;-75
2021/12/03 04:08:47;;;;;;;20.02;3.25;;;;;;;4.50;100.00;100449.16;5026273;28;20034;-75
2021/12/03 04:11:18;;;;;;;16.13;3.00;;;;;;;4.60;100.00;100444.16;5026790;28;20570;-75
2021/12/03 04:13:44;;;;;;;21.02;3.15;;;;;;;4.68;100.00;100440.44;5013140;28;20044;-75
2021/12/03 04:16:09;;;;;;;14.27;2.58;;;;;;;4.68;100.00;100432.47;5024647;28;20412;-75
2021/12/03 04:18:35;;;;;;;19.88;2.85;;;;;;;4.79;100.00;100435.22;5027213;28;20043;-74
2021/12/03 04:21:03;;;;;;;15.88;2.80;;;;;;;4.78;100.00;100430.94;5025079;28;20578;-75
2021/12/03 04:23:28;;;;;;;20.00;2.55;;;;;;;4.84;100.00;100433.78;5028598;28;20036;-75
2021/12/03 04:25:54;;;;;;;16.42;2.97;;;;;;;4.74;100.00;100413.00;5026072;28;20056;-74
2021/12/03 04:28:22;;;;;;;17.52;2.42;;;;;;;4.74;100.00;100427.09;5024819;28;20476;-74
2021/12/03 04:30:49;;;;;;;15.43;2.70;;;;;;;4.76;100.00;100416.25;5025064;28;20052;-74
2021/12/03 04:33:19;;;;;;;17.05;2.55;;;;;;;4.77;100.00;100423.19;5039671;28;20037;-74
2021/12/03 04:35:47;;;;;;;15.38;2.88;;;;;;;4.74;100.00;100413.81;5026159;28;20124;-76
2021/12/03 04:38:13;;;;;;;10.00;1.88;;;;;;;4.70;100.00;100422.41;5024333;28;20041;-74
2021/12/03 04:40:40;;;;;;;18.85;2.28;;;;;;;4.64;100.00;100408.19;5023861;28;20523;-75
2021/12/03 04:43:08;;;;;;;15.43;2.00;;;;;;;4.69;100.00;100403.00;5028264;28;20043;-75
2021/12/03 04:45:34;;;;;;;12.45;2.10;;;;;;;4.67;100.00;100406.91;5040387;28;20060;-76
2021/12/03 04:48:06;;;;;;;14.85;2.45;;;;;;;4.65;100.00;100404.47;5024355;28;20047;-76
2021/12/03 04:50:34;;;;;;;18.70;2.70;;;;;;;4.69;100.00;100413.63;5024815;28;21885;-76
2021/12/03 04:53:05;;;;;;;16.40;3.10;;;;;;;4.70;100.00;100412.59;5025278;28;20033;-76
2021/12/03 04:55:32;;;;;;;15.95;2.00;;;;;;;4.71;100.00;100400.94;5024641;28;20083;-75
2021/12/03 04:58:00;;;;;;;15.90;2.63;;;;;;;4.72;100.00;100415.88;5025871;28;20128;-76
2021/12/03 05:00:41;;;;;;;13.18;2.38;;;;;;;4.70;100.00;100396.66;5025530;28;20044;-76
2021/12/03 05:03:08;;;;;;;16.73;2.53;;;;;;;4.72;100.00;100415.88;5024256;28;20029;-76
2021/12/03 05:05:34;;;;;;;14.57;2.67;;;;;;;4.72;100.00;100407.91;5037673;28;20671;-76
2021/12/03 05:08:07;;;;;;;17.30;2.50;;;;;;;4.67;100.00;100397.09;5026102;28;20032;-75
2021/12/03 05:10:40;;;;;;;19.35;2.75;;;;;;;4.73;100.00;100390.13;5024444;28;20466;-76
2021/12/03 05:13:18;;;;;;;12.57;2.35;;;;;;;4.64;100.00;100381.59;5022227;28;20352;-75
2021/12/03 05:15:44;;;;;;;15.57;2.25;;;;;;;4.73;100.00;100390.13;5024911;28;20051;-75
2021/12/03 05:18:17;;;;;;;18.85;3.95;;;;;;;4.69;100.00;100381.75;5026908;28;20106;-77
2021/12/03 05:20:46;;;;;;;11.73;2.20;;;;;;;4.64;100.00;100389.56;5014510;28;20135;-77
2021/12/03 05:23:12;;;;;;;15.90;2.35;;;;;;;4.65;100.00;100377.91;5023270;28;20512;-76
2021/12/03 05:25:38;;;;;;;18.23;3.50;;;;;;;4.66;100.00;100379.53;5023225;28;20112;-77
2021/12/03 05:28:05;;;;;;;19.02;2.72;;;;;;;4.73;100.00;100380.28;5038898;28;20618;-76
2021/12/03 05:30:31;;;;;;;12.13;2.35;;;;;;;4.66;100.00;100368.91;5022072;28;20098;-76
2021/12/03 05:32:56;;;;;;;17.48;2.40;;;;;;;4.68;100.00;100366.84;5028056;28;20066;-77
2021/12/03 05:35:28;;;;;;;12.50;2.30;;;;;;;4.68;100.00;100372.16;5027598;28;20355;-76
2021/12/03 05:37:53;;;;;;;17.27;3.17;;;;;;;4.70;100.00;100375.41;5013130;28;20778;-76
2021/12/03 05:40:24;;;;;;;15.48;2.42;;;;;;;4.64;100.00;100365.66;5022953;28;20057;-77
2021/12/03 05:42:52;;;;;;;16.75;2.40;;;;;;;4.67;100.00;100365.22;5022633;28;20021;-76
2021/12/03 05:45:20;;;;;;;19.73;2.60;;;;;;;4.62;100.00;100373.00;5001619;28;20028;-76
2021/12/03 05:47:48;;;;;;;18.02;2.00;;;;;;;4.62;100.00;100377.50;5021173;28;20036;-76
2021/12/03 05:50:17;;;;;;;19.70;2.72;;;;;;;4.48;100.00;100356.38;5037101;28;20500;-76
2021/12/03 05:52:46;;;;;;;17.60;2.22;;;;;;;4.62;100.00;100375.66;5023344;28;20415;-76
2021/12/03 05:55:14;;;;;;;19.30;2.95;;;;;;;4.61;100.00;100370.56;5025209;28;20025;-76
2021/12/03 05:57:45;;;;;;;18.88;2.75;;;;;;;4.63;100.00;100371.16;5024509;28;21804;-76
2021/12/03 06:00:24;;;;;;;15.13;2.70;;;;;;;4.60;100.00;100368.97;5037641;28;20029;-77
2021/12/03 06:02:50;;;;;;;15.15;2.35;;;;;;;4.60;100.00;100361.78;5023355;28;21912;-77
2021/12/03 06:05:17;;;;;;;16.40;2.97;;;;;;;4.55;100.00;100356.31;5025264;28;20422;-76
2021/12/03 06:07:45;;;;;;;23.40;2.67;;;;;;;4.56;100.00;100357.13;5023965;28;20033;-77
2021/12/03 06:10:11;;;;;;;17.45;2.55;;;;;;;4.57;100.00;100370.22;5025802;28;20043;-76
2021/12/03 06:12:36;;;;;;;15.90;2.75;;;;;;;4.60;100.00;100361.00;5026206;28;20037;-75
2021/12/03 06:15:05;;;;;;;24.00;2.92;;;;;;;4.62;100.00;100370.34;5027884;28;20219;-76
2021/12/03 06:17:30;;;;;;;16.00;2.80;;;;;;;4.65;100.00;100361.16;5023247;28;20043;-75
2021/12/03 06:19:58;;;;;;;17.52;2.60;;;;;;;4.57;100.00;100364.91;5025547;28;20038;-75
2021/12/03 06:22:24;;;;;;;13.02;2.20;;;;;;;4.52;100.00;100372.69;5027104;28;20040;-77
2021/12/03 06:24:52;;;;;;;19.23;2.45;;;;;;;4.54;100.00;100375.94;5026336;28;20033;-75
2021/12/03 06:27:20;;;;;;;15.18;2.80;;;;;;;4.58;100.00;100374.50;5024448;28;20112;-77
2021/12/03 06:29:48;;;;;;;14.52;2.80;;;;;;;4.56;100.00;100360.63;5023616;28;20032;-76
2021/12/03 06:32:13;;;;;;;15.70;2.40;;;;;;;4.57;100.00;100372.88;5023851;28;20048;-77
2021/12/03 06:34:39;;;;;;;16.40;2.95;;;;;;;4.59;100.00;100362.84;5023239;28;20047;-76
2021/12/03 06:37:07;;;;;;;13.25;2.42;;;;;;;4.59;100.00;100368.16;5023059;28;22492;-77
2021/12/03 06:39:35;;;;;;;15.65;2.22;;;;;;;4.62;100.00;100359.72;5023686;28;20033;-77
2021/12/03 06:42:06;;;;;;;15.98;3.17;;;;;;;4.64;100.00;100376.28;5023499;28;20072;-77
2021/12/03 06:44:31;;;;;;;12.85;1.98;;;;;;;4.57;100.00;100353.47;5028664;28;20044;-76
2021/12/03 06:46:57;;;;;;;14.32;2.42;;;;;;;4.42;100.00;100356.44;5024935;28;20551;-76
2021/12/03 06:49:28;;;;;;;21.20;2.80;;;;;;;4.41;100.00;100352.97;5024097;28;20063;-76
2021/12/03 06:51:58;;;;;;;21.48;3.35;;;;;;;4.35;100.00;100342.38;5012370;28;20193;-76
2021/12/03 06:54:29;;;;;;;15.27;2.33;;;;;;;4.54;100.00;100349.38;5026254;28;21883;-77
2021/12/03 06:56:55;;;;;;;15.60;2.72;;;;;;;4.54;100.00;100349.38;5023576;28;20094;-77
2021/12/03 06:59:22;;;;;;;18.13;3.40;;;;;;;4.48;100.00;100335.13;5024058;28;20307;-77
2021/12/03 07:01:48;;;;;;;18.08;2.92;;;;;;;4.47;100.00;100345.94;5024723;28;20094;-77
2021/12/03 07:04:14;;;;;;;22.17;3.47;;;;;;;4.49;100.00;100355.34;5025487;28;20229;-76
2021/12/03 07:06:40;;;;;;;17.60;3.03;;;;;;;4.43;100.00;100342.13;5027511;28;20037;-77
2021/12/03 07:09:12;;;;;;;14.98;2.67;;;;;;;4.47;100.00;100349.44;5035443;28;20033;-77
2021/12/03 07:11:37;;;;;;;14.93;2.40;;;;;;;4.52;100.00;100356.75;5020998;28;20337;-77
2021/12/03 07:14:03;;;;;;;16.73;3.00;;;;;;;4.48;100.00;100342.28;5023053;28;20024;-76
2021/12/03 07:16:32;;;;;;;25.02;3.88;;;;;;;4.46;100.00;100342.50;5022915;28;20496;-76
2021/12/03 07:19:02;;;;;;;18.58;3.08;;;;;;;4.40;100.00;100329.28;5022622;28;20121;-77
2021/12/03 07:21:30;;;;;;;23.02;3.25;;;;;;;4.49;100.00;100342.06;5022916;28;20529;-76
2021/12/03 07:23:55;;;;;;;24.92;4.25;;;;;;;4.46;100.00;100339.84;5021570;28;20152;-76
2021/12/03 07:26:22;;;;;;;15.15;2.65;;;;;;;4.40;100.00;100331.94;5009626;28;20032;-77
2021/12/03 07:28:48;;;;;;;19.23;3.10;;;;;;;4.33;100.00;100326.69;5022555;28;20056;-77
2021/12/03 07:31:18;;;;;;;23.55;3.47;;;;;;;4.40;100.00;100334.59;5025748;28;20047;-74
2021/12/03 07:33:47;;;;;;;24.48;3.28;;;;;;;4.39;100.00;100315.16;5020717;28;20062;-75
2021/12/03 07:36:13;;;;;;;26.85;3.00;;;;;;;4.37;100.00;100325.19;5026316;28;20476;-75
2021/12/03 07:38:39;;;;;;;16.15;2.85;;;;;;;4.32;100.00;100313.63;5025471;28;20032;-75
2021/12/03 07:41:07;;;;;;;20.63;3.13;;;;;;;4.32;100.00;100308.31;5023951;28;20238;-75
2021/12/03 07:43:33;;;;;;;18.75;3.50;;;;;;;4.34;100.00;100308.91;5024110;28;20036;-77
2021/12/03 07:45:58;;;;;;;22.50;3.40;;;;;;;4.34;100.00;100293.78;5012879;28;20082;-76
2021/12/03 07:48:26;;;;;;;35.58;3.33;;;;;;;4.37;100.00;100297.84;5024115;28;20043;-76
2021/12/03 07:50:53;;;;;;;15.52;2.25;;;;;;;4.40;100.00;100298.22;5025278;28;20033;-76
2021/12/03 07:53:19;;;;;;;22.40;2.72;;;;;;;4.42;100.00;100290.03;5024154;28;20515;-76
2021/12/03 07:55:50;;;;;;;26.55;3.85;;;;;;;4.47;100.00;100284.84;5023157;28;20064;-76
2021/12/03 07:58:18;;;;;;;19.80;2.97;;;;;;;4.50;100.00;100292.41;5039543;28;20041;-76
2021/12/03 08:00:45;;;;;;;22.23;3.05;;;;;;;4.50;100.00;100284.44;5025669;28;20055;-76
2021/12/03 08:03:12;;;;;;;20.83;3.30;;;;;;;4.47;100.00;100280.34;5025721;28;20036;-76
2021/12/03 08:05:37;;;;;;;19.23;2.88;;;;;;;4.45;100.00;100278.97;5010963;28;20677;-76
2021/12/03 08:08:03;;;;;;;16.50;2.75;;;;;;;4.38;100.00;100270.22;5026077;28;20411;-76
2021/12/03 08:10:29;;;;;;;16.20;3.33;;;;;;;4.36;100.00;100272.31;5024518;28;20040;-77
2021/12/03 08:12:57;;;;;;;17.55;2.70;;;;;;;4.45;100.00;100287.75;5026859;28;20033;-76
2021/12/03 08:15:22;;;;;;;19.25;2.75;;;;;;;4.45;100.00;100284.28;5024848;28;20036;-75
2021/12/03 08:17:53;;;;;;;18.83;3.60;;;;;;;4.48;100.00;100278.53;5024197;28;20134;-75
2021/12/03 08:20:18;;;;;;;19.15;2.50;;;;;;;4.42;100.00;100260.81;5039512;28;20470;-76
2021/12/03 08:22:48;;;;;;;22.58;3.35;;;;;;;4.48;100.00;100266.06;5030003;28;20383;-76
2021/12/03 08:25:14;;;;;;;19.13;2.90;;;;;;;4.46;100.00;100260.16;5026252;28;20264;-75
2021/12/03 08:27:41;;;;;;;16.65;2.42;;;;;;;4.49;100.00;100267.69;5023374;28;20040;-77
2021/12/03 08:30:09;;;;;;;19.08;3.03;;;;;;;4.49;100.00;100262.38;5014597;28;20067;-77
2021/12/03 08:32:37;;;;;;;18.33;2.33;;;;;;;4.43;100.00;100270.41;5026941;28;20041;-75
2021/12/03 08:35:06;;;;;;;14.18;2.20;;;;;;;4.29;100.00;100252.97;5027149;28;20040;-75
2021/12/03 08:37:31;;;;;;;13.10;2.30;;;;;;;4.29;100.00;100260.94;5025198;28;20835;-76
2021/12/03 08:39:59;;;;;;;17.30;2.50;;;;;;;4.18;100.00;100249.19;5023114;28;20064;-76
2021/12/03 08:42:25;;;;;;;12.30;2.20;;;;;;;4.12;100.00;100256.16;5024205;28;20033;-76
2021/12/03 08:44:52;;;;;;;17.88;2.17;;;;;;;4.12;100.00;100260.66;5022259;28;20424;-76
2021/12/03 08:47:18;;;;;;;10.52;1.73;;;;;;;4.05;100.00;100244.78;5012496;28;20119;-76
2021/12/03 08:49:50;;;;;;;10.73;2.13;;;;;;;4.05;100.00;100249.28;5019017;28;20032;-76
2021/12/03 08:52:28;;;;;;;17.55;3.08;;;;;;;4.10;100.00;100239.66;5023930;28;20040;-76
2021/12/03 08:54:57;;;;;;;11.50;1.88;;;;;;;4.04;100.00;100240.50;5023529;28;20028;-77
2021/12/03 08:57:32;;;;;;;16.30;2.20;;;;;;;3.93;100.00;100235.91;5022957;28;20462;-78
2021/12/03 09:00:00;;;;;;;11.35;2.55;;;;;;;3.79;100.00;100229.06;5026751;28;20032;-77
2021/12/03 09:02:28;;;;;;;16.45;1.88;;;;;;;3.79;100.00;100223.75;5011975;28;20029;-77
2021/12/03 09:04:54;;;;;;;14.73;2.88;;;;;;;3.71;100.00;100222.19;5022932;28;22091;-77
2021/12/03 09:07:22;;;;;;;18.65;3.00;;;;;;;3.67;100.00;100214.88;5010610;28;20235;-78
2021/12/03 09:09:53;;;;;;;24.42;3.40;;;;;;;3.64;100.00;100208.16;5023281;28;20666;-75
2021/12/03 09:12:21;;;;;;;19.73;3.15;;;;;;;3.63;100.00;100201.22;5006084;28;20417;-76
2021/12/03 09:14:52;;;;;;;14.38;2.30;;;;;;;3.56;100.00;100203.09;5023754;28;20024;-78
2021/12/03 09:19:53;;;;;;;13.18;1.70;;;;;;;3.38;100.00;100190.56;5022364;28;20174;-76
2021/12/03 09:23:08;;;;;;;22.35;5.00;;;;;;;3.32;100.00;100209.97;5025759;28;20047;-74
2021/12/03 09:25:18;;;;;;;13.75;3.72;;;;;;;3.09;100.00;100206.03;5017613;28;20056;-74
2021/12/03 09:27:44;;;;;;;16.55;4.72;;;;;;;2.87;100.00;100194.09;5022563;28;20135;-74
2021/12/03 09:30:14;;;;;;;20.23;5.22;;;;;;;2.79;100.00;100186.41;5022751;28;20662;-75
2021/12/03 09:32:42;;;;;;;24.13;5.50;;;;;;;2.74;100.00;100196.81;5025404;28;20774;-74
2021/12/03 09:35:10;;;;;;;28.25;5.70;;;;;;;2.63;100.00;100192.16;5022300;28;20025;-74
2021/12/03 09:37:36;;;;;;;20.02;6.22;;;;;;;2.58;100.00;100184.03;5022866;28;20143;-74
2021/12/03 09:40:05;;;;;;;25.85;5.90;;;;;;;2.50;100.00;100183.22;5020539;28;20045;-75
2021/12/03 09:42:34;;;;;;;24.08;8.60;;;;;;;2.55;100.00;100195.03;5021722;28;20052;-75
2021/12/03 09:45:00;;;;;;;14.68;5.82;;;;;;;2.42;100.00;100180.81;5034628;28;20330;-75
2021/12/03 09:47:25;;;;;;;21.58;7.00;;;;;;;2.24;100.00;100159.47;5020518;28;20032;-75
2021/12/03 09:49:55;;;;;;;22.27;7.57;;;;;;;2.50;100.00;100172.63;5022197;28;20160;-77
2021/12/03 09:52:55;;;;;;;23.38;7.15;;;;;;;2.61;100.00;100168.53;5023466;28;20047;-76
2021/12/03 09:55:12;;;;;;;21.42;5.90;;;;;;;2.67;100.00;100166.88;5020069;28;20588;-74
2021/12/03 09:57:54;;;;;;;22.45;6.70;;;;;;;2.66;100.00;100165.25;5012087;28;20037;-74
2021/12/03 10:18:52;;;;;;;28.45;9.00;;;;;;;2.96;100.00;100134.53;5025951;28;20044;-74
2021/12/03 10:27:38;;;;;;;28.98;10.13;;;;;;;3.15;100.00;100111.59;5034589;28;20029;-74
2021/12/03 10:33:36;;;;;;;24.95;7.72;;;;;;;3.15;100.00;100102.84;5020714;28;20048;-73
2021/12/03 10:39:12;;;;;;;19.58;7.57;;;;;;;3.16;100.00;100112.41;5020129;28;20044;-73
2021/12/03 10:42:06;;;;;;;19.80;7.18;;;;;;;3.30;100.00;100103.34;5011494;28;20098;-72
2021/12/03 10:44:54;;;;;;;22.67;7.35;;;;;;;3.32;100.00;100090.66;5019769;28;20048;-74
2021/12/03 10:58:48;;;;;;;23.58;11.40;;;;;;;3.28;100.00;100058.50;5021212;28;20066;-73
2021/12/03 11:02:07;;;;;;;29.92;13.82;;;;;;;3.34;100.00;100046.22;5021070;28;20044;-73
2021/12/03 11:19:54;;;;;;;23.90;11.20;;;;;;;3.41;100.00;100019.63;5022589;28;20053;-75
2021/12/03 11:44:30;;;;;;;25.17;7.97;;;;;;;3.32;100.00;99972.16;5022914;28;20472;-73
2021/12/03 12:09:40;;;;;;;28.50;9.80;;;;;;;3.56;100.00;99898.91;5023247;28;20507;-74
2021/12/03 13:56:57;;;;;;;26.65;11.48;;;;;;;4.03;100.00;99832.78;5033314;28;20040;-75
2021/12/03 14:36:39;;;;;;;27.80;14.25;;;;;;;4.16;100.00;99832.59;5024174;28;20174;-73
2021/12/03 14:42:45;;;;;;;37.30;16.63;;;;;;;4.28;100.00;99839.75;5016022;28;20033;-75
2021/12/03 14:45:28;;;;;;;23.80;16.35;;;;;;;4.27;100.00;99830.97;5018626;28;20086;-72
2021/12/03 14:55:46;;;;;;;31.63;15.30;;;;;;;4.47;100.00;99814.72;5017565;28;22025;-72
2021/12/03 14:58:51;;;;;;;33.22;17.98;;;;;;;4.51;100.00;99818.53;5021815;28;20031;-72
2021/12/03 15:01:15;;;;;;;31.07;16.87;;;;;;;4.38;100.00;99816.09;5016029;28;20760;-72
2021/12/03 15:08:56;;;;;;;41.42;19.95;;;;;;;4.51;100.00;99813.22;5019801;28;20075;-73
2021/12/03 15:30:10;;;;;;;38.20;17.08;;;;;;;4.66;100.00;99804.81;5015593;28;20025;-73
2021/12/03 15:35:12;;;;;;;32.47;17.90;;;;;;;4.55;100.00;99790.47;5015446;28;20511;-74
2021/12/03 15:40:35;;;;;;;39.42;17.90;;;;;;;4.58;100.00;99807.81;5017656;28;20032;-74
2021/12/03 15:56:44;;;;;;;49.88;21.85;;;;;;;4.63;100.00;99805.25;5012308;28;20033;-73
2021/12/03 16:04:44;;;;;;;42.03;22.83;;;;;;;4.58;100.00;99790.03;5024512;28;20034;-72
2021/12/03 16:12:32;;;;;;;44.55;24.95;;;;;;;4.66;100.00;99788.88;5016225;28;20071;-72
2021/12/03 16:15:17;;;;;;;40.38;23.17;;;;;;;4.64;100.00;99780.28;5017913;28;20456;-72
2021/12/03 16:26:03;;;;;;;58.17;25.35;;;;;;;4.69;100.00;99778.56;5024859;28;20119;-73
2021/12/03 16:45:15;;;;;;;46.55;22.98;;;;;;;4.98;100.00;99765.38;4999073;28;20448;-73
2021/12/03 16:48:05;;;;;;;40.47;22.20;;;;;;;4.92;100.00;99782.25;5017910;28;20712;-72
2021/12/03 16:53:27;;;;;;;53.28;26.15;;;;;;;4.93;100.00;99783.84;5022587;28;20115;-72
2021/12/03 16:58:38;;;;;;;51.60;27.25;;;;;;;4.77;100.00;99764.94;5033590;28;20105;-73
2021/12/03 17:01:08;;;;;;;47.70;29.10;;;;;;;4.79;100.00;99767.34;5020393;28;20032;-71
2021/12/03 17:03:51;;;;;;;;;;;;;;;4.84;100.00;99777.28;5004807;28;20099;-73
2021/12/03 17:45:10;;;;;;;56.95;31.42;;;;;;;4.86;100.00;99752.09;5016771;28;20041;-69